Portada
METAR-TAF:

METAR-TAF

Aeropuertos :

Agen, Francia

latitud: 44-11N, longitud: 000-36E, altitud: 61 m

Observación

El informe se hizo hace 18 minutos, a las 01:00 UTC
Viento 2 kt con dirección variable
Temperatura 15°C
Humedad 88%
Presión 1016 hPa
Visibilidad 10 km o más
sin nubes por debajo de 1500 m y sin presencia de cumulonimbus.

METAR: LFBA 230100Z AUTO VRB02KT CAVOK 15/13 Q1016

Hora: 03:18 (01:18 UTC)

Pronóstico

El informe se hizo hace 6 horas y 55 minutos, a las 18:23 UTC
Pronóstico válido del 22 a las 18 UTC al 22 a las 24 UTC
Viento 6 kt del oeste-noroeste
Visibilidad 10 km o más
Nubes dispersas a una altura de 4000 ft
Probabilidad 40% :
Temporalmente
del 22 a las 18 UTC al 22 a las 19 UTC
Visibilidad: 4000 m
Nubes dispersas a una altura de 5000 ft, Cumulonimbus.
Cielo nuboso a una altura de 8000 ft
chaparrones de lluvia

TAF: LFBA 221823Z 2218/2224 30006KT 9999 SCT040 PROB40 TEMPO 2218/2219 4000 SHRA SCT050CB BKN080

Observaciones y pronósticos meteorológicos de más de 4000 aeropuertos (mensajes METAR y TAF).

Los puntos amarillos y rojos representan las estaciones disponibles.

Ponga el ratón en el punto deseado para ver el nombre de la estación.

Haga clic para ver las observaciones y los pronósticos meteorológicos.

Para cambiar el mapa : haga clic en los botones verdes con una cruz de color negro para hacer un zoom, en el botón verde con un guión para alejar o en las flechas verdes para mapas adyacentes.


METAR-TAF: